LNE1417 SEGU-SEGS
Flight info
| Callsign | LNE1417 |
|---|---|
| Flight time | 1h 51m |
| Altitude | 34000 |
| Route | ASOSI3A ASOSI UW17 SCV |
| Aircraft | A319/M-SDE3FGHIRWY/LB1 |
Departure
| Time | 2026-04-29 11:04 |
|---|---|
| Airport | José Joaquín de Olmedo International Airport (SEGU) |
Arrival
| Time | 2026-04-29 12:56 |
|---|---|
| Airport | Seymour Galapagos Ecological Airport (SEGS) |
| Time | Latitude | Longitude | Altitude | Speed | Heading |
|---|---|---|---|---|---|
| 2026-04-29 10:08 | -2.15104 | -79.88454 | 31 ft | 0 kts | 301° |
| 2026-04-29 10:54 | -2.15110 | -79.88446 | 31 ft | 2 kts | 301° |
| 2026-04-29 10:54 | -2.15117 | -79.88433 | 31 ft | 1 kts | 301° |
| 2026-04-29 10:55 | -2.15122 | -79.88425 | 30 ft | 2 kts | 292° |
| 2026-04-29 10:55 | -2.15124 | -79.88409 | 30 ft | 2 kts | 263° |
| 2026-04-29 10:55 | -2.15120 | -79.88395 | 30 ft | 2 kts | 236° |
| 2026-04-29 10:55 | -2.15111 | -79.88386 | 30 ft | 0 kts | 214° |
| 2026-04-29 10:56 | -2.15105 | -79.88382 | 30 ft | 1 kts | 209° |
| 2026-04-29 10:56 | -2.15104 | -79.88381 | 30 ft | 0 kts | 210° |
| 2026-04-29 10:58 | -2.15106 | -79.88383 | 30 ft | 0 kts | 210° |
| 2026-04-29 10:58 | -2.15131 | -79.88397 | 30 ft | 5 kts | 198° |
| 2026-04-29 10:59 | -2.15172 | -79.88384 | 30 ft | 7 kts | 130° |
| 2026-04-29 10:59 | -2.15203 | -79.88330 | 29 ft | 10 kts | 120° |
| 2026-04-29 10:59 | -2.15214 | -79.88258 | 27 ft | 12 kts | 56° |
| 2026-04-29 10:59 | -2.15138 | -79.88209 | 26 ft | 14 kts | 30° |
| 2026-04-29 11:00 | -2.15045 | -79.88156 | 26 ft | 15 kts | 30° |
| 2026-04-29 11:00 | -2.14948 | -79.88100 | 27 ft | 16 kts | 30° |
| 2026-04-29 11:00 | -2.14848 | -79.88043 | 26 ft | 17 kts | 31° |
| 2026-04-29 11:00 | -2.14749 | -79.87985 | 27 ft | 15 kts | 29° |
| 2026-04-29 11:01 | -2.14680 | -79.87941 | 28 ft | 11 kts | 44° |
| 2026-04-29 11:01 | -2.14650 | -79.87877 | 27 ft | 9 kts | 74° |
| 2026-04-29 11:01 | -2.14636 | -79.87807 | 25 ft | 11 kts | 96° |
| 2026-04-29 11:01 | -2.14675 | -79.87754 | 25 ft | 9 kts | 181° |
| 2026-04-29 11:02 | -2.14690 | -79.87760 | 25 ft | 0 kts | 211° |
| 2026-04-29 11:03 | -2.14692 | -79.87761 | 25 ft | 2 kts | 211° |
| 2026-04-29 11:03 | -2.14885 | -79.87875 | 26 ft | 69 kts | 210° |
| 2026-04-29 11:04 | -2.15515 | -79.88236 | 28 ft | 136 kts | 210° |
| 2026-04-29 11:04 | -2.16432 | -79.88754 | 441 ft | 154 kts | 212° |
| 2026-04-29 11:04 | -2.17355 | -79.89312 | 1094 ft | 158 kts | 213° |
| 2026-04-29 11:04 | -2.18292 | -79.89889 | 1750 ft | 162 kts | 213° |
| 2026-04-29 11:05 | -2.19242 | -79.90556 | 2144 ft | 175 kts | 232° |
| 2026-04-29 11:05 | -2.19628 | -79.91727 | 2534 ft | 187 kts | 269° |
| 2026-04-29 11:05 | -2.19575 | -79.93088 | 2936 ft | 206 kts | 275° |
| 2026-04-29 11:05 | -2.19464 | -79.94595 | 3341 ft | 228 kts | 275° |
| 2026-04-29 11:06 | -2.19371 | -79.96237 | 3863 ft | 247 kts | 274° |
| 2026-04-29 11:06 | -2.19300 | -79.98026 | 4407 ft | 266 kts | 273° |
| 2026-04-29 11:06 | -2.19249 | -79.99908 | 5074 ft | 279 kts | 272° |
| 2026-04-29 11:06 | -2.19209 | -80.01834 | 5957 ft | 283 kts | 272° |
| 2026-04-29 11:07 | -2.19176 | -80.03799 | 6827 ft | 287 kts | 272° |
| 2026-04-29 11:07 | -2.19144 | -80.05803 | 7678 ft | 291 kts | 272° |
| 2026-04-29 11:07 | -2.19113 | -80.07827 | 8505 ft | 295 kts | 271° |
| 2026-04-29 11:07 | -2.19083 | -80.09888 | 9311 ft | 298 kts | 271° |
| 2026-04-29 11:08 | -2.19053 | -80.11968 | 10068 ft | 302 kts | 271° |
| 2026-04-29 11:08 | -2.19022 | -80.14069 | 10592 ft | 314 kts | 271° |
| 2026-04-29 11:08 | -2.18989 | -80.16326 | 10965 ft | 331 kts | 271° |
| 2026-04-29 11:08 | -2.18956 | -80.18652 | 11510 ft | 340 kts | 271° |
| 2026-04-29 11:09 | -2.18923 | -80.21031 | 12163 ft | 344 kts | 271° |
| 2026-04-29 11:09 | -2.18889 | -80.23447 | 12801 ft | 349 kts | 271° |
| 2026-04-29 11:09 | -2.18854 | -80.25871 | 13384 ft | 354 kts | 271° |
| 2026-04-29 11:09 | -2.18819 | -80.28336 | 13989 ft | 357 kts | 271° |
| 2026-04-29 11:10 | -2.18784 | -80.30822 | 14597 ft | 361 kts | 271° |
| 2026-04-29 11:10 | -2.18747 | -80.33350 | 15191 ft | 364 kts | 271° |
| 2026-04-29 11:10 | -2.18710 | -80.35857 | 15759 ft | 367 kts | 271° |
| 2026-04-29 11:10 | -2.18673 | -80.38407 | 16321 ft | 370 kts | 271° |
| 2026-04-29 11:11 | -2.18635 | -80.41000 | 16843 ft | 374 kts | 271° |
| 2026-04-29 11:11 | -2.18596 | -80.43598 | 17355 ft | 377 kts | 271° |
| 2026-04-29 11:11 | -2.18557 | -80.46226 | 17896 ft | 380 kts | 271° |
| 2026-04-29 11:11 | -2.18518 | -80.48892 | 18430 ft | 383 kts | 271° |
| 2026-04-29 11:12 | -2.18481 | -80.51556 | 18968 ft | 384 kts | 270° |
| 2026-04-29 11:12 | -2.18557 | -80.54216 | 19499 ft | 386 kts | 266° |
| 2026-04-29 11:12 | -2.18765 | -80.56885 | 20001 ft | 388 kts | 265° |
| 2026-04-29 11:12 | -2.18998 | -80.59570 | 20494 ft | 390 kts | 265° |
| 2026-04-29 11:13 | -2.19234 | -80.62270 | 20962 ft | 392 kts | 265° |
| 2026-04-29 11:13 | -2.19472 | -80.65012 | 21436 ft | 394 kts | 265° |
| 2026-04-29 11:13 | -2.19708 | -80.67776 | 21897 ft | 396 kts | 265° |
| 2026-04-29 11:13 | -2.19943 | -80.70544 | 22359 ft | 397 kts | 265° |
| 2026-04-29 11:14 | -2.20176 | -80.73292 | 22807 ft | 399 kts | 265° |
| 2026-04-29 11:14 | -2.20412 | -80.76086 | 23246 ft | 400 kts | 265° |
| 2026-04-29 11:14 | -2.20648 | -80.78877 | 23666 ft | 402 kts | 265° |
| 2026-04-29 11:14 | -2.20883 | -80.81668 | 24084 ft | 404 kts | 265° |
| 2026-04-29 11:15 | -2.21118 | -80.84462 | 24497 ft | 406 kts | 264° |
| 2026-04-29 11:15 | -2.21355 | -80.87273 | 24903 ft | 408 kts | 264° |
| 2026-04-29 11:15 | -2.21597 | -80.90138 | 25300 ft | 409 kts | 264° |
| 2026-04-29 11:15 | -2.21835 | -80.92961 | 25685 ft | 411 kts | 265° |
| 2026-04-29 11:16 | -2.21941 | -80.95821 | 26067 ft | 413 kts | 269° |
| 2026-04-29 11:16 | -2.21788 | -80.98672 | 26448 ft | 415 kts | 275° |
| 2026-04-29 11:16 | -2.21368 | -81.01556 | 26827 ft | 417 kts | 279° |
| 2026-04-29 11:16 | -2.20839 | -81.04404 | 27184 ft | 419 kts | 279° |
| 2026-04-29 11:17 | -2.20289 | -81.07260 | 27547 ft | 420 kts | 280° |
| 2026-04-29 11:17 | -2.19739 | -81.10117 | 27905 ft | 422 kts | 279° |
| 2026-04-29 11:17 | -2.19191 | -81.12974 | 28260 ft | 423 kts | 279° |
| 2026-04-29 11:17 | -2.18634 | -81.15887 | 28624 ft | 424 kts | 279° |
| 2026-04-29 11:18 | -2.18081 | -81.18785 | 28983 ft | 426 kts | 279° |
| 2026-04-29 11:18 | -2.17527 | -81.21696 | 29286 ft | 429 kts | 278° |
| 2026-04-29 11:18 | -2.16966 | -81.24657 | 29603 ft | 432 kts | 279° |
| 2026-04-29 11:18 | -2.16408 | -81.27605 | 29919 ft | 434 kts | 278° |
| 2026-04-29 11:19 | -2.15838 | -81.30615 | 30232 ft | 437 kts | 278° |
| 2026-04-29 11:19 | -2.15273 | -81.33593 | 30542 ft | 440 kts | 278° |
| 2026-04-29 11:19 | -2.14705 | -81.36594 | 30899 ft | 441 kts | 278° |
| 2026-04-29 11:19 | -2.14135 | -81.39599 | 31364 ft | 440 kts | 278° |
| 2026-04-29 11:20 | -2.13561 | -81.42615 | 31844 ft | 438 kts | 277° |
| 2026-04-29 11:20 | -2.12992 | -81.45608 | 32301 ft | 437 kts | 277° |
| 2026-04-29 11:20 | -2.12433 | -81.48563 | 32657 ft | 439 kts | 277° |
| 2026-04-29 11:20 | -2.11864 | -81.51562 | 33018 ft | 440 kts | 276° |
| 2026-04-29 11:21 | -2.11288 | -81.54600 | 33427 ft | 441 kts | 276° |
| 2026-04-29 11:21 | -2.10724 | -81.57595 | 33815 ft | 442 kts | 277° |
| 2026-04-29 11:21 | -2.10157 | -81.60596 | 33885 ft | 444 kts | 276° |
| 2026-04-29 11:22 | -2.08994 | -81.66718 | 33900 ft | 445 kts | 276° |
| 2026-04-29 11:22 | -2.07814 | -81.72945 | 33902 ft | 445 kts | 276° |
| 2026-04-29 11:23 | -2.06650 | -81.79076 | 33903 ft | 445 kts | 276° |
| 2026-04-29 11:23 | -2.05502 | -81.85109 | 33903 ft | 445 kts | 276° |
| 2026-04-29 11:24 | -2.04577 | -81.91222 | 33907 ft | 443 kts | 272° |
| 2026-04-29 11:24 | -2.03764 | -81.97341 | 33917 ft | 444 kts | 272° |
| 2026-04-29 11:25 | -2.02949 | -82.03468 | 33923 ft | 444 kts | 272° |
| 2026-04-29 11:25 | -2.02135 | -82.09560 | 33923 ft | 444 kts | 272° |
| 2026-04-29 11:26 | -2.00903 | -82.18741 | 33925 ft | 444 kts | 272° |
| 2026-04-29 11:26 | -2.00083 | -82.24826 | 33925 ft | 443 kts | 272° |
| 2026-04-29 11:27 | -1.99260 | -82.30954 | 33925 ft | 444 kts | 272° |
| 2026-04-29 11:27 | -1.98445 | -82.37026 | 33924 ft | 444 kts | 272° |
| 2026-04-29 11:28 | -1.97615 | -82.43173 | 33924 ft | 444 kts | 272° |
| 2026-04-29 11:28 | -1.96791 | -82.49284 | 33922 ft | 444 kts | 272° |
| 2026-04-29 11:29 | -1.95964 | -82.55415 | 33913 ft | 445 kts | 272° |
| 2026-04-29 11:29 | -1.95113 | -82.61825 | 33906 ft | 444 kts | 272° |
| 2026-04-29 11:30 | -1.94304 | -82.67950 | 33903 ft | 444 kts | 272° |
| 2026-04-29 11:30 | -1.93490 | -82.74060 | 33903 ft | 445 kts | 272° |
| 2026-04-29 11:31 | -1.92670 | -82.80212 | 33903 ft | 444 kts | 272° |
| 2026-04-29 11:31 | -1.91855 | -82.86314 | 33904 ft | 445 kts | 272° |
| 2026-04-29 11:32 | -1.91035 | -82.92451 | 33903 ft | 444 kts | 272° |
| 2026-04-29 11:32 | -1.90221 | -82.98545 | 33903 ft | 445 kts | 271° |
| 2026-04-29 11:33 | -1.89384 | -83.04679 | 33901 ft | 445 kts | 272° |
| 2026-04-29 11:33 | -1.88539 | -83.10798 | 33903 ft | 445 kts | 272° |
| 2026-04-29 11:34 | -1.87714 | -83.16911 | 33903 ft | 446 kts | 272° |
| 2026-04-29 11:34 | -1.86889 | -83.23046 | 33903 ft | 445 kts | 271° |
| 2026-04-29 11:35 | -1.86066 | -83.29181 | 33903 ft | 445 kts | 271° |
| 2026-04-29 11:35 | -1.85253 | -83.35262 | 33902 ft | 445 kts | 272° |
| 2026-04-29 11:36 | -1.84434 | -83.41380 | 33903 ft | 445 kts | 272° |
| 2026-04-29 11:36 | -1.83612 | -83.47502 | 33902 ft | 444 kts | 272° |
| 2026-04-29 11:37 | -1.82796 | -83.53615 | 33903 ft | 445 kts | 272° |
| 2026-04-29 11:37 | -1.81975 | -83.59733 | 33905 ft | 445 kts | 272° |
| 2026-04-29 11:38 | -1.81156 | -83.65846 | 33911 ft | 444 kts | 272° |
| 2026-04-29 11:38 | -1.80335 | -83.71968 | 33917 ft | 444 kts | 272° |
| 2026-04-29 11:39 | -1.79516 | -83.78091 | 33918 ft | 444 kts | 272° |
| 2026-04-29 11:39 | -1.78702 | -83.84171 | 33916 ft | 444 kts | 272° |
| 2026-04-29 11:40 | -1.77882 | -83.90279 | 33917 ft | 444 kts | 272° |
| 2026-04-29 11:40 | -1.77060 | -83.96407 | 33920 ft | 443 kts | 272° |
| 2026-04-29 11:41 | -1.76243 | -84.02500 | 33919 ft | 443 kts | 272° |
| 2026-04-29 11:41 | -1.75422 | -84.08604 | 33916 ft | 443 kts | 272° |
| 2026-04-29 11:42 | -1.74602 | -84.14709 | 33909 ft | 443 kts | 272° |
| 2026-04-29 11:42 | -1.73784 | -84.20805 | 33904 ft | 443 kts | 272° |
| 2026-04-29 11:43 | -1.72969 | -84.26893 | 33903 ft | 444 kts | 272° |
| 2026-04-29 11:43 | -1.72151 | -84.32990 | 33903 ft | 443 kts | 272° |
| 2026-04-29 11:44 | -1.71330 | -84.39111 | 33902 ft | 443 kts | 272° |
| 2026-04-29 11:44 | -1.70511 | -84.45216 | 33900 ft | 444 kts | 272° |
| 2026-04-29 11:45 | -1.69696 | -84.51292 | 33900 ft | 443 kts | 272° |
| 2026-04-29 11:45 | -1.68878 | -84.57389 | 33899 ft | 444 kts | 272° |
| 2026-04-29 11:46 | -1.68058 | -84.63497 | 33900 ft | 443 kts | 272° |
| 2026-04-29 11:46 | -1.67239 | -84.69588 | 33900 ft | 443 kts | 272° |
| 2026-04-29 11:47 | -1.66418 | -84.75707 | 33897 ft | 443 kts | 272° |
| 2026-04-29 11:47 | -1.65602 | -84.81786 | 33898 ft | 443 kts | 272° |
| 2026-04-29 11:48 | -1.64782 | -84.87888 | 33897 ft | 443 kts | 272° |
| 2026-04-29 11:48 | -1.63960 | -84.94007 | 33897 ft | 443 kts | 272° |
| 2026-04-29 11:49 | -1.63142 | -85.00084 | 33896 ft | 443 kts | 272° |
| 2026-04-29 11:49 | -1.62321 | -85.06195 | 33895 ft | 443 kts | 273° |
| 2026-04-29 11:50 | -1.61505 | -85.12256 | 33889 ft | 443 kts | 273° |
| 2026-04-29 11:50 | -1.60683 | -85.18381 | 33884 ft | 443 kts | 272° |
| 2026-04-29 11:51 | -1.59867 | -85.24497 | 33882 ft | 443 kts | 272° |
| 2026-04-29 11:51 | -1.59057 | -85.30562 | 33882 ft | 442 kts | 273° |
| 2026-04-29 11:52 | -1.58227 | -85.36767 | 33881 ft | 442 kts | 273° |
| 2026-04-29 11:52 | -1.57411 | -85.42866 | 33879 ft | 442 kts | 273° |
| 2026-04-29 11:53 | -1.56595 | -85.48971 | 33878 ft | 442 kts | 273° |
| 2026-04-29 11:53 | -1.55781 | -85.55039 | 33877 ft | 442 kts | 273° |
| 2026-04-29 11:54 | -1.54957 | -85.61198 | 33878 ft | 442 kts | 273° |
| 2026-04-29 11:54 | -1.54146 | -85.67252 | 33878 ft | 442 kts | 273° |
| 2026-04-29 11:55 | -1.53344 | -85.73244 | 33881 ft | 442 kts | 273° |
| 2026-04-29 11:55 | -1.52532 | -85.79312 | 33882 ft | 442 kts | 273° |
| 2026-04-29 11:56 | -1.51719 | -85.85387 | 33884 ft | 441 kts | 273° |
| 2026-04-29 11:56 | -1.50904 | -85.91466 | 33884 ft | 441 kts | 273° |
| 2026-04-29 11:57 | -1.50076 | -85.97643 | 33884 ft | 442 kts | 273° |
| 2026-04-29 11:57 | -1.49257 | -86.03745 | 33883 ft | 442 kts | 273° |
| 2026-04-29 11:58 | -1.48442 | -86.09815 | 33883 ft | 442 kts | 273° |
| 2026-04-29 11:58 | -1.47630 | -86.15856 | 33883 ft | 440 kts | 273° |
| 2026-04-29 11:59 | -1.46817 | -86.21925 | 33882 ft | 441 kts | 274° |
| 2026-04-29 11:59 | -1.45999 | -86.27998 | 33882 ft | 440 kts | 274° |
| 2026-04-29 12:00 | -1.45180 | -86.34088 | 33882 ft | 441 kts | 274° |
| 2026-04-29 12:00 | -1.44368 | -86.40134 | 33882 ft | 440 kts | 274° |
| 2026-04-29 12:01 | -1.43562 | -86.46177 | 33883 ft | 440 kts | 274° |
| 2026-04-29 12:01 | -1.42750 | -86.52259 | 33882 ft | 440 kts | 273° |
| 2026-04-29 12:02 | -1.41944 | -86.58306 | 33883 ft | 440 kts | 274° |
| 2026-04-29 12:02 | -1.41134 | -86.64359 | 33883 ft | 439 kts | 274° |
| 2026-04-29 12:03 | -1.40327 | -86.70400 | 33883 ft | 439 kts | 274° |
| 2026-04-29 12:03 | -1.39524 | -86.76403 | 33885 ft | 438 kts | 274° |
| 2026-04-29 12:04 | -1.38713 | -86.82461 | 33885 ft | 438 kts | 274° |
| 2026-04-29 12:04 | -1.37903 | -86.88525 | 33884 ft | 439 kts | 274° |
| 2026-04-29 12:05 | -1.37094 | -86.94557 | 33883 ft | 438 kts | 274° |
| 2026-04-29 12:05 | -1.36284 | -87.00599 | 33883 ft | 438 kts | 274° |
| 2026-04-29 12:06 | -1.35478 | -87.06620 | 33883 ft | 438 kts | 274° |
| 2026-04-29 12:06 | -1.34673 | -87.12624 | 33881 ft | 438 kts | 274° |
| 2026-04-29 12:07 | -1.33862 | -87.18671 | 33879 ft | 438 kts | 274° |
| 2026-04-29 12:07 | -1.33054 | -87.24699 | 33880 ft | 438 kts | 274° |
| 2026-04-29 12:08 | -1.32246 | -87.30723 | 33880 ft | 437 kts | 274° |
| 2026-04-29 12:08 | -1.31434 | -87.36769 | 33880 ft | 437 kts | 274° |
| 2026-04-29 12:09 | -1.30626 | -87.42784 | 33882 ft | 437 kts | 274° |
| 2026-04-29 12:09 | -1.29821 | -87.48795 | 33879 ft | 438 kts | 274° |
| 2026-04-29 12:10 | -1.29012 | -87.54816 | 33881 ft | 438 kts | 274° |
| 2026-04-29 12:10 | -1.28202 | -87.60845 | 33882 ft | 437 kts | 274° |
| 2026-04-29 12:11 | -1.27391 | -87.66871 | 33880 ft | 437 kts | 274° |
| 2026-04-29 12:11 | -1.26583 | -87.72892 | 33876 ft | 437 kts | 274° |
| 2026-04-29 12:12 | -1.25774 | -87.78900 | 33867 ft | 437 kts | 274° |
| 2026-04-29 12:12 | -1.24962 | -87.84934 | 33859 ft | 437 kts | 274° |
| 2026-04-29 12:13 | -1.23994 | -87.90954 | 33859 ft | 439 kts | 277° |
| 2026-04-29 12:13 | -1.22840 | -87.96918 | 33862 ft | 438 kts | 278° |
| 2026-04-29 12:14 | -1.21678 | -88.02876 | 33860 ft | 438 kts | 278° |
| 2026-04-29 12:14 | -1.20516 | -88.08830 | 33862 ft | 437 kts | 278° |
| 2026-04-29 12:15 | -1.19349 | -88.14812 | 33862 ft | 437 kts | 278° |
| 2026-04-29 12:15 | -1.18193 | -88.20743 | 33862 ft | 437 kts | 278° |
| 2026-04-29 12:16 | -1.17030 | -88.26708 | 33865 ft | 437 kts | 278° |
| 2026-04-29 12:16 | -1.15866 | -88.32678 | 33867 ft | 437 kts | 278° |
| 2026-04-29 12:17 | -1.14700 | -88.38657 | 33625 ft | 437 kts | 278° |
| 2026-04-29 12:17 | -1.14125 | -88.41605 | 33342 ft | 435 kts | 278° |
| 2026-04-29 12:17 | -1.13549 | -88.44564 | 33055 ft | 433 kts | 278° |
| 2026-04-29 12:18 | -1.12970 | -88.47528 | 32768 ft | 431 kts | 278° |
| 2026-04-29 12:18 | -1.12405 | -88.50433 | 32502 ft | 432 kts | 278° |
| 2026-04-29 12:18 | -1.11828 | -88.53389 | 32252 ft | 433 kts | 278° |
| 2026-04-29 12:18 | -1.11251 | -88.56340 | 32002 ft | 434 kts | 278° |
| 2026-04-29 12:19 | -1.10669 | -88.59313 | 31752 ft | 435 kts | 278° |
| 2026-04-29 12:19 | -1.10095 | -88.62257 | 31505 ft | 437 kts | 277° |
| 2026-04-29 12:19 | -1.09511 | -88.65248 | 31170 ft | 438 kts | 277° |
| 2026-04-29 12:19 | -1.08925 | -88.68252 | 30666 ft | 441 kts | 277° |
| 2026-04-29 12:20 | -1.08343 | -88.71245 | 30051 ft | 442 kts | 277° |
| 2026-04-29 12:20 | -1.07758 | -88.74245 | 29588 ft | 437 kts | 277° |
| 2026-04-29 12:20 | -1.07183 | -88.77193 | 29112 ft | 434 kts | 276° |
| 2026-04-29 12:20 | -1.06607 | -88.80138 | 28644 ft | 430 kts | 276° |
| 2026-04-29 12:21 | -1.06039 | -88.83054 | 28161 ft | 427 kts | 276° |
| 2026-04-29 12:21 | -1.05472 | -88.85988 | 27687 ft | 424 kts | 277° |
| 2026-04-29 12:21 | -1.04914 | -88.88866 | 27231 ft | 420 kts | 277° |
| 2026-04-29 12:21 | -1.04359 | -88.91708 | 26787 ft | 416 kts | 277° |
| 2026-04-29 12:22 | -1.03809 | -88.94530 | 26339 ft | 413 kts | 277° |
| 2026-04-29 12:22 | -1.03266 | -88.97315 | 25898 ft | 409 kts | 278° |
| 2026-04-29 12:22 | -1.02726 | -89.00087 | 25457 ft | 405 kts | 278° |
| 2026-04-29 12:22 | -1.02196 | -89.02808 | 25025 ft | 401 kts | 278° |
| 2026-04-29 12:23 | -1.01662 | -89.05556 | 24589 ft | 399 kts | 279° |
| 2026-04-29 12:23 | -1.01137 | -89.08266 | 24102 ft | 397 kts | 279° |
| 2026-04-29 12:23 | -1.00615 | -89.10934 | 23665 ft | 394 kts | 280° |
| 2026-04-29 12:23 | -1.00092 | -89.13599 | 23237 ft | 390 kts | 280° |
| 2026-04-29 12:24 | -0.99570 | -89.16272 | 22810 ft | 387 kts | 281° |
| 2026-04-29 12:24 | -0.99061 | -89.18873 | 22401 ft | 383 kts | 281° |
| 2026-04-29 12:24 | -0.98552 | -89.21473 | 21978 ft | 381 kts | 281° |
| 2026-04-29 12:24 | -0.98045 | -89.24054 | 21558 ft | 378 kts | 281° |
| 2026-04-29 12:25 | -0.97537 | -89.26643 | 21126 ft | 377 kts | 281° |
| 2026-04-29 12:25 | -0.97035 | -89.29198 | 20664 ft | 377 kts | 281° |
| 2026-04-29 12:25 | -0.96029 | -89.34341 | 19778 ft | 376 kts | 282° |
| 2026-04-29 12:26 | -0.95527 | -89.36906 | 19348 ft | 376 kts | 282° |
| 2026-04-29 12:26 | -0.95025 | -89.39473 | 18918 ft | 376 kts | 282° |
| 2026-04-29 12:26 | -0.94522 | -89.42040 | 18489 ft | 376 kts | 281° |
| 2026-04-29 12:26 | -0.94020 | -89.44604 | 18049 ft | 376 kts | 282° |
| 2026-04-29 12:27 | -0.93518 | -89.47164 | 17690 ft | 373 kts | 281° |
| 2026-04-29 12:27 | -0.93028 | -89.49670 | 17584 ft | 361 kts | 281° |
| 2026-04-29 12:27 | -0.92550 | -89.52103 | 17494 ft | 349 kts | 281° |
| 2026-04-29 12:27 | -0.92094 | -89.54433 | 17410 ft | 339 kts | 281° |
| 2026-04-29 12:28 | -0.91643 | -89.56738 | 17338 ft | 335 kts | 281° |
| 2026-04-29 12:28 | -0.91195 | -89.59030 | 17254 ft | 336 kts | 281° |
| 2026-04-29 12:28 | -0.90743 | -89.61343 | 17179 ft | 336 kts | 281° |
| 2026-04-29 12:28 | -0.90123 | -89.63573 | 17048 ft | 329 kts | 298° |
| 2026-04-29 12:29 | -0.88708 | -89.65286 | 16683 ft | 322 kts | 328° |
| 2026-04-29 12:29 | -0.86672 | -89.66073 | 16337 ft | 310 kts | 358° |
| 2026-04-29 12:29 | -0.84568 | -89.65753 | 16044 ft | 298 kts | 26° |
| 2026-04-29 12:29 | -0.82885 | -89.64597 | 15710 ft | 292 kts | 49° |
| 2026-04-29 12:30 | -0.81814 | -89.62897 | 15357 ft | 289 kts | 71° |
| 2026-04-29 12:30 | -0.81520 | -89.60948 | 15243 ft | 290 kts | 93° |
| 2026-04-29 12:30 | -0.81858 | -89.58923 | 15073 ft | 294 kts | 100° |
| 2026-04-29 12:30 | -0.82289 | -89.56943 | 14843 ft | 293 kts | 100° |
| 2026-04-29 12:31 | -0.82713 | -89.54942 | 14606 ft | 292 kts | 100° |
| 2026-04-29 12:31 | -0.83117 | -89.52958 | 14374 ft | 291 kts | 99° |
| 2026-04-29 12:31 | -0.83645 | -89.51000 | 14127 ft | 294 kts | 114° |
| 2026-04-29 12:31 | -0.84924 | -89.49401 | 13889 ft | 297 kts | 140° |
| 2026-04-29 12:32 | -0.86808 | -89.48518 | 13649 ft | 304 kts | 166° |
| 2026-04-29 12:32 | -0.88935 | -89.48568 | 13404 ft | 310 kts | 194° |
| 2026-04-29 12:32 | -0.90842 | -89.49579 | 13158 ft | 313 kts | 222° |
| 2026-04-29 12:32 | -0.92090 | -89.51351 | 12909 ft | 312 kts | 251° |
| 2026-04-29 12:33 | -0.92385 | -89.53468 | 12664 ft | 306 kts | 278° |
| 2026-04-29 12:33 | -0.91993 | -89.55559 | 12437 ft | 305 kts | 285° |
| 2026-04-29 12:33 | -0.91525 | -89.57610 | 12203 ft | 305 kts | 284° |
| 2026-04-29 12:33 | -0.91069 | -89.59692 | 11964 ft | 304 kts | 284° |
| 2026-04-29 12:34 | -0.90648 | -89.61732 | 11730 ft | 302 kts | 283° |
| 2026-04-29 12:34 | -0.89993 | -89.63727 | 11469 ft | 296 kts | 305° |
| 2026-04-29 12:34 | -0.88555 | -89.65103 | 11234 ft | 286 kts | 334° |
| 2026-04-29 12:34 | -0.86679 | -89.65694 | 10998 ft | 281 kts | 358° |
| 2026-04-29 12:35 | -0.84750 | -89.65475 | 10762 ft | 275 kts | 21° |
| 2026-04-29 12:35 | -0.83090 | -89.64505 | 10526 ft | 273 kts | 44° |
| 2026-04-29 12:35 | -0.81995 | -89.63010 | 10316 ft | 269 kts | 66° |
| 2026-04-29 12:35 | -0.81574 | -89.61165 | 10124 ft | 264 kts | 88° |
| 2026-04-29 12:36 | -0.81825 | -89.59251 | 9925 ft | 262 kts | 99° |
| 2026-04-29 12:36 | -0.82264 | -89.57468 | 9875 ft | 265 kts | 111° |
| 2026-04-29 12:36 | -0.83361 | -89.55991 | 9870 ft | 270 kts | 138° |
| 2026-04-29 12:36 | -0.85029 | -89.55085 | 9816 ft | 275 kts | 161° |
| 2026-04-29 12:37 | -0.86991 | -89.54908 | 9704 ft | 295 kts | 187° |
| 2026-04-29 12:37 | -0.88926 | -89.55597 | 9578 ft | 303 kts | 212° |
| 2026-04-29 12:37 | -0.90425 | -89.57090 | 9448 ft | 304 kts | 239° |
| 2026-04-29 12:37 | -0.91102 | -89.59058 | 9319 ft | 302 kts | 266° |
| 2026-04-29 12:38 | -0.90916 | -89.61126 | 9208 ft | 300 kts | 283° |
| 2026-04-29 12:38 | -0.90412 | -89.63148 | 9086 ft | 298 kts | 290° |
| 2026-04-29 12:38 | -0.89621 | -89.65048 | 8965 ft | 297 kts | 300° |
| 2026-04-29 12:38 | -0.88527 | -89.66795 | 8845 ft | 294 kts | 309° |
| 2026-04-29 12:39 | -0.87179 | -89.68316 | 8727 ft | 292 kts | 319° |
| 2026-04-29 12:39 | -0.85614 | -89.69611 | 8609 ft | 291 kts | 325° |
| 2026-04-29 12:39 | -0.84005 | -89.70892 | 8488 ft | 292 kts | 320° |
| 2026-04-29 12:39 | -0.82593 | -89.72343 | 8370 ft | 293 kts | 312° |
| 2026-04-29 12:40 | -0.81293 | -89.73930 | 8251 ft | 293 kts | 310° |
| 2026-04-29 12:40 | -0.80041 | -89.75524 | 8133 ft | 294 kts | 309° |
| 2026-04-29 12:40 | -0.78765 | -89.77164 | 8011 ft | 293 kts | 309° |
| 2026-04-29 12:40 | -0.77515 | -89.78776 | 7892 ft | 293 kts | 309° |
| 2026-04-29 12:41 | -0.76264 | -89.80386 | 7774 ft | 293 kts | 309° |
| 2026-04-29 12:41 | -0.75018 | -89.81990 | 7655 ft | 292 kts | 309° |
| 2026-04-29 12:41 | -0.73782 | -89.83584 | 7536 ft | 291 kts | 309° |
| 2026-04-29 12:41 | -0.72607 | -89.85273 | 7413 ft | 292 kts | 304° |
| 2026-04-29 12:42 | -0.71550 | -89.86993 | 7294 ft | 291 kts | 302° |
| 2026-04-29 12:42 | -0.70501 | -89.88745 | 7175 ft | 291 kts | 302° |
| 2026-04-29 12:42 | -0.69461 | -89.90488 | 7055 ft | 291 kts | 302° |
| 2026-04-29 12:42 | -0.68431 | -89.92212 | 6936 ft | 290 kts | 302° |
| 2026-04-29 12:43 | -0.67388 | -89.93960 | 6815 ft | 291 kts | 302° |
| 2026-04-29 12:43 | -0.66349 | -89.95681 | 6695 ft | 290 kts | 303° |
| 2026-04-29 12:43 | -0.65295 | -89.97412 | 6575 ft | 290 kts | 302° |
| 2026-04-29 12:43 | -0.64245 | -89.99129 | 6456 ft | 289 kts | 303° |
| 2026-04-29 12:44 | -0.63171 | -90.00845 | 6336 ft | 289 kts | 303° |
| 2026-04-29 12:44 | -0.62106 | -90.02542 | 6215 ft | 289 kts | 303° |
| 2026-04-29 12:44 | -0.61039 | -90.04247 | 6095 ft | 288 kts | 303° |
| 2026-04-29 12:44 | -0.59973 | -90.05953 | 5972 ft | 289 kts | 303° |
| 2026-04-29 12:45 | -0.58906 | -90.07661 | 5852 ft | 288 kts | 303° |
| 2026-04-29 12:45 | -0.57842 | -90.09366 | 5731 ft | 288 kts | 303° |
| 2026-04-29 12:45 | -0.56781 | -90.11068 | 5609 ft | 287 kts | 303° |
| 2026-04-29 12:45 | -0.55725 | -90.12763 | 5489 ft | 287 kts | 303° |
| 2026-04-29 12:46 | -0.54674 | -90.14450 | 5356 ft | 285 kts | 303° |
| 2026-04-29 12:46 | -0.53632 | -90.16120 | 5213 ft | 285 kts | 303° |
| 2026-04-29 12:46 | -0.52580 | -90.17808 | 5089 ft | 282 kts | 303° |
| 2026-04-29 12:46 | -0.51550 | -90.19460 | 4898 ft | 277 kts | 303° |
| 2026-04-29 12:47 | -0.50536 | -90.21088 | 4704 ft | 272 kts | 302° |
| 2026-04-29 12:47 | -0.49562 | -90.22649 | 4502 ft | 262 kts | 302° |
| 2026-04-29 12:47 | -0.48616 | -90.24168 | 4375 ft | 248 kts | 302° |
| 2026-04-29 12:47 | -0.47718 | -90.25609 | 4259 ft | 241 kts | 302° |
| 2026-04-29 12:48 | -0.46827 | -90.27038 | 4136 ft | 240 kts | 302° |
| 2026-04-29 12:48 | -0.45939 | -90.28461 | 4018 ft | 240 kts | 302° |
| 2026-04-29 12:48 | -0.45056 | -90.29878 | 4002 ft | 238 kts | 302° |
| 2026-04-29 12:48 | -0.44191 | -90.31266 | 3803 ft | 237 kts | 302° |
| 2026-04-29 12:49 | -0.43315 | -90.32672 | 3555 ft | 238 kts | 302° |
| 2026-04-29 12:49 | -0.42432 | -90.34088 | 3329 ft | 238 kts | 302° |
| 2026-04-29 12:49 | -0.41554 | -90.35497 | 3120 ft | 237 kts | 302° |
| 2026-04-29 12:49 | -0.40677 | -90.36902 | 2901 ft | 237 kts | 302° |
| 2026-04-29 12:50 | -0.39818 | -90.38279 | 2753 ft | 233 kts | 301° |
| 2026-04-29 12:50 | -0.38947 | -90.39635 | 2638 ft | 228 kts | 308° |
| 2026-04-29 12:50 | -0.37736 | -90.40608 | 2489 ft | 222 kts | 338° |
| 2026-04-29 12:50 | -0.36241 | -90.40913 | 2299 ft | 216 kts | 6° |
| 2026-04-29 12:51 | -0.34793 | -90.40548 | 2083 ft | 211 kts | 32° |
| 2026-04-29 12:51 | -0.33667 | -90.39644 | 1994 ft | 204 kts | 56° |
| 2026-04-29 12:51 | -0.33028 | -90.38453 | 1974 ft | 189 kts | 78° |
| 2026-04-29 12:51 | -0.32884 | -90.37196 | 1970 ft | 178 kts | 98° |
| 2026-04-29 12:52 | -0.33185 | -90.35996 | 1977 ft | 176 kts | 117° |
| 2026-04-29 12:52 | -0.33905 | -90.35026 | 1985 ft | 174 kts | 136° |
| 2026-04-29 12:52 | -0.34827 | -90.34244 | 1987 ft | 175 kts | 142° |
| 2026-04-29 12:52 | -0.35814 | -90.33516 | 1986 ft | 174 kts | 144° |
| 2026-04-29 12:53 | -0.36772 | -90.32832 | 1966 ft | 164 kts | 143° |
| 2026-04-29 12:53 | -0.37682 | -90.32177 | 1738 ft | 154 kts | 143° |
| 2026-04-29 12:53 | -0.38526 | -90.31566 | 1530 ft | 145 kts | 143° |
| 2026-04-29 12:53 | -0.39313 | -90.30993 | 1346 ft | 137 kts | 143° |
| 2026-04-29 12:54 | -0.40084 | -90.30431 | 1186 ft | 136 kts | 143° |
| 2026-04-29 12:54 | -0.40825 | -90.29894 | 1007 ft | 125 kts | 144° |
| 2026-04-29 12:54 | -0.41511 | -90.29395 | 850 ft | 121 kts | 144° |
| 2026-04-29 12:54 | -0.42195 | -90.28899 | 693 ft | 120 kts | 143° |
| 2026-04-29 12:55 | -0.42870 | -90.28406 | 550 ft | 120 kts | 144° |
| 2026-04-29 12:55 | -0.43551 | -90.27914 | 391 ft | 120 kts | 144° |
| 2026-04-29 12:55 | -0.44237 | -90.27419 | 240 ft | 121 kts | 144° |
| 2026-04-29 12:55 | -0.44908 | -90.26932 | 160 ft | 112 kts | 144° |
| 2026-04-29 12:56 | -0.45295 | -90.26650 | 173 ft | 25 kts | 144° |
| 2026-04-29 12:56 | -0.45337 | -90.26616 | 175 ft | 2 kts | 33° |
| 2026-04-29 12:56 | -0.45226 | -90.26711 | 169 ft | 43 kts | 329° |
| 2026-04-29 12:56 | -0.44949 | -90.26894 | 161 ft | 45 kts | 322° |
| 2026-04-29 12:57 | -0.44697 | -90.27084 | 156 ft | 43 kts | 324° |
| 2026-04-29 12:57 | -0.44523 | -90.27202 | 155 ft | 11 kts | 349° |
| 2026-04-29 12:57 | -0.44477 | -90.27159 | 157 ft | 4 kts | 71° |
| 2026-04-29 12:57 | -0.44473 | -90.27137 | 158 ft | 2 kts | 92° |
| 2026-04-29 12:58 | -0.44474 | -90.27125 | 158 ft | 0 kts | 92° |
| 2026-04-29 12:58 | -0.44476 | -90.27110 | 159 ft | 3 kts | 107° |
| 2026-04-29 12:58 | -0.44492 | -90.27093 | 160 ft | 2 kts | 143° |
| 2026-04-29 12:58 | -0.44495 | -90.27091 | 160 ft | 0 kts | 143° |